Portada
METAR-TAF:

METAR-TAF

Aeroports :

Kinloss, Escòcia

latitud: 57-39N, longitud: 003-34W, altitud: 7 m

Observació

L'informe es va fer fa 51 minuts, a les 08:01 UTC
Vent 10 kt del Sud/Sud-Oest
Temperatura 15°C
Humitat 72%
Pressió 1010 hPa
Visibilitat 10 km o més
Núvols disperses a una alçada de 3000 ft
Cel ennuvolat a una alçada de 12000 ft

METAR: EGQK 220801Z 20010KT 9999 SCT030 BKN120 15/10 Q1010 BLU

Hora: 09:52 (08:52 UTC)

Pronòstic

L'informe es va fer fa 37 minuts, a les 08:15 UTC
Pronòstic vàlid del 22 a les 09 UTC al 22 a les 18 UTC
Vent 10 kt del Sud/Sud-Oest
Visibilitat 10 km o més
Núvols disperses a una alçada de 3000 ft
Temporalment
l' 22 a les 09 UTC al 22 a les 18 UTC
Vent 18 kt del Sud-Oest amb ràfegues de 28 kt

TAF: EGQK 220815Z 2209/2218 21010KT 9999 SCT030 TEMPO 2209/2218 22018G28KT

Observacions i pronòstics meteorològics de més de 4000 aeroports (METAR i TAF).

Les estacions disponibles són els punts grocs i vermells al mapa.

Posi el ratolí al punt desitjat per veure el nom de l'estació.

Feu clic per veure les observacions i els pronòstics meteorològics.

Per canviar el mapa: feu clic els botons verds amb una creu de color negre per apropar; al botó verd amb un guió per allunyar la imatge; o en les fletxes verdes per a mapes adjacents.


METAR-TAF: